sensor_id;sensor_type;location;lat;lon;timestamp;P1;durP1;ratioP1;P2;durP2;ratioP2
36443;SDS011;24692;45.642;13.806;2023-12-07T00:00:51;2.57;;;2.37;;
36443;SDS011;24692;45.642;13.806;2023-12-07T00:03:16;2.30;;;2.10;;
36443;SDS011;24692;45.642;13.806;2023-12-07T00:05:42;2.47;;;2.27;;
36443;SDS011;24692;45.642;13.806;2023-12-07T00:08:11;3.37;;;2.50;;
36443;SDS011;24692;45.642;13.806;2023-12-07T00:10:37;5.03;;;2.33;;
36443;SDS011;24692;45.642;13.806;2023-12-07T00:13:02;2.60;;;2.30;;
36443;SDS011;24692;45.642;13.806;2023-12-07T00:15:28;2.63;;;2.37;;
36443;SDS011;24692;45.642;13.806;2023-12-07T00:17:53;3.43;;;2.37;;
36443;SDS011;24692;45.642;13.806;2023-12-07T00:20:19;3.23;;;2.40;;
36443;SDS011;24692;45.642;13.806;2023-12-07T00:22:45;3.17;;;2.40;;
36443;SDS011;24692;45.642;13.806;2023-12-07T00:25:11;5.13;;;2.40;;
36443;SDS011;24692;45.642;13.806;2023-12-07T00:27:36;4.20;;;2.53;;
36443;SDS011;24692;45.642;13.806;2023-12-07T00:30:02;3.37;;;2.77;;
36443;SDS011;24692;45.642;13.806;2023-12-07T00:32:28;4.43;;;2.63;;
36443;SDS011;24692;45.642;13.806;2023-12-07T00:34:54;4.50;;;2.83;;
36443;SDS011;24692;45.642;13.806;2023-12-07T00:37:20;4.27;;;2.60;;
36443;SDS011;24692;45.642;13.806;2023-12-07T00:39:46;3.53;;;2.80;;
36443;SDS011;24692;45.642;13.806;2023-12-07T00:42:12;3.53;;;2.43;;
36443;SDS011;24692;45.642;13.806;2023-12-07T00:44:40;2.93;;;2.50;;
36443;SDS011;24692;45.642;13.806;2023-12-07T00:47:07;4.07;;;2.70;;
36443;SDS011;24692;45.642;13.806;2023-12-07T00:49:32;4.40;;;2.70;;
36443;SDS011;24692;45.642;13.806;2023-12-07T00:51:58;4.07;;;2.60;;
36443;SDS011;24692;45.642;13.806;2023-12-07T00:54:25;3.27;;;2.60;;
36443;SDS011;24692;45.642;13.806;2023-12-07T00:56:50;6.37;;;3.10;;
36443;SDS011;24692;45.642;13.806;2023-12-07T00:59:16;3.70;;;2.60;;
36443;SDS011;24692;45.642;13.806;2023-12-07T01:01:42;3.37;;;2.70;;
36443;SDS011;24692;45.642;13.806;2023-12-07T01:04:07;4.10;;;2.77;;
36443;SDS011;24692;45.642;13.806;2023-12-07T01:06:33;5.70;;;2.97;;
36443;SDS011;24692;45.642;13.806;2023-12-07T01:08:59;3.73;;;2.83;;
36443;SDS011;24692;45.642;13.806;2023-12-07T01:11:24;5.07;;;2.57;;
36443;SDS011;24692;45.642;13.806;2023-12-07T01:13:50;7.53;;;3.07;;
36443;SDS011;24692;45.642;13.806;2023-12-07T01:16:16;7.43;;;2.90;;
36443;SDS011;24692;45.642;13.806;2023-12-07T01:18:41;6.03;;;3.10;;
36443;SDS011;24692;45.642;13.806;2023-12-07T01:21:07;3.50;;;2.80;;
36443;SDS011;24692;45.642;13.806;2023-12-07T01:23:33;3.43;;;2.57;;
36443;SDS011;24692;45.642;13.806;2023-12-07T01:25:58;3.23;;;2.73;;
36443;SDS011;24692;45.642;13.806;2023-12-07T01:28:27;3.90;;;2.63;;
36443;SDS011;24692;45.642;13.806;2023-12-07T01:30:53;4.10;;;2.80;;
36443;SDS011;24692;45.642;13.806;2023-12-07T01:33:18;3.37;;;2.77;;
36443;SDS011;24692;45.642;13.806;2023-12-07T01:35:44;4.07;;;2.77;;
36443;SDS011;24692;45.642;13.806;2023-12-07T01:38:10;3.40;;;2.80;;
36443;SDS011;24692;45.642;13.806;2023-12-07T01:40:36;4.70;;;2.97;;
36443;SDS011;24692;45.642;13.806;2023-12-07T01:43:01;5.03;;;2.70;;
36443;SDS011;24692;45.642;13.806;2023-12-07T01:45:27;4.77;;;2.70;;
36443;SDS011;24692;45.642;13.806;2023-12-07T01:47:53;4.47;;;3.00;;
36443;SDS011;24692;45.642;13.806;2023-12-07T01:50:22;5.43;;;2.67;;
36443;SDS011;24692;45.642;13.806;2023-12-07T01:52:49;3.40;;;2.70;;
36443;SDS011;24692;45.642;13.806;2023-12-07T01:55:19;4.43;;;2.80;;
36443;SDS011;24692;45.642;13.806;2023-12-07T01:57:46;4.10;;;2.87;;
36443;SDS011;24692;45.642;13.806;2023-12-07T02:00:14;5.17;;;3.50;;
36443;SDS011;24692;45.642;13.806;2023-12-07T02:02:40;5.07;;;2.90;;
36443;SDS011;24692;45.642;13.806;2023-12-07T02:05:08;4.33;;;2.97;;
36443;SDS011;24692;45.642;13.806;2023-12-07T02:07:34;4.57;;;2.83;;
36443;SDS011;24692;45.642;13.806;2023-12-07T02:10:00;3.77;;;2.57;;
36443;SDS011;24692;45.642;13.806;2023-12-07T02:12:25;5.87;;;2.90;;
36443;SDS011;24692;45.642;13.806;2023-12-07T02:14:54;5.23;;;2.73;;
36443;SDS011;24692;45.642;13.806;2023-12-07T02:17:26;4.43;;;3.37;;
36443;SDS011;24692;45.642;13.806;2023-12-07T02:20:01;4.53;;;3.10;;
36443;SDS011;24692;45.642;13.806;2023-12-07T02:22:49;5.00;;;3.10;;
36443;SDS011;24692;45.642;13.806;2023-12-07T02:25:20;6.30;;;4.03;;
36443;SDS011;24692;45.642;13.806;2023-12-07T02:27:51;5.33;;;2.77;;
36443;SDS011;24692;45.642;13.806;2023-12-07T02:30:16;6.23;;;3.17;;
36443;SDS011;24692;45.642;13.806;2023-12-07T02:32:43;4.63;;;3.00;;
36443;SDS011;24692;45.642;13.806;2023-12-07T02:35:10;5.10;;;3.47;;
36443;SDS011;24692;45.642;13.806;2023-12-07T02:40:14;4.30;;;2.73;;
36443;SDS011;24692;45.642;13.806;2023-12-07T02:42:45;4.27;;;3.17;;
36443;SDS011;24692;45.642;13.806;2023-12-07T02:45:12;3.97;;;2.90;;
36443;SDS011;24692;45.642;13.806;2023-12-07T02:47:38;4.27;;;3.20;;
36443;SDS011;24692;45.642;13.806;2023-12-07T02:50:04;6.77;;;3.30;;
36443;SDS011;24692;45.642;13.806;2023-12-07T02:52:31;4.00;;;2.87;;
36443;SDS011;24692;45.642;13.806;2023-12-07T02:54:57;3.30;;;2.70;;
36443;SDS011;24692;45.642;13.806;2023-12-07T02:57:23;3.40;;;2.57;;
36443;SDS011;24692;45.642;13.806;2023-12-07T02:59:49;5.07;;;2.70;;
36443;SDS011;24692;45.642;13.806;2023-12-07T03:02:14;4.63;;;2.53;;
36443;SDS011;24692;45.642;13.806;2023-12-07T03:04:40;3.37;;;2.70;;
36443;SDS011;24692;45.642;13.806;2023-12-07T03:07:06;3.70;;;2.70;;
36443;SDS011;24692;45.642;13.806;2023-12-07T03:09:31;4.40;;;3.00;;
36443;SDS011;24692;45.642;13.806;2023-12-07T03:11:57;7.37;;;2.83;;
36443;SDS011;24692;45.642;13.806;2023-12-07T03:14:23;4.80;;;2.60;;
36443;SDS011;24692;45.642;13.806;2023-12-07T03:16:48;3.10;;;2.70;;
36443;SDS011;24692;45.642;13.806;2023-12-07T03:19:14;4.40;;;2.43;;
36443;SDS011;24692;45.642;13.806;2023-12-07T03:21:40;3.37;;;2.70;;
36443;SDS011;24692;45.642;13.806;2023-12-07T03:24:07;4.43;;;3.13;;
36443;SDS011;24692;45.642;13.806;2023-12-07T03:26:34;5.30;;;3.00;;
36443;SDS011;24692;45.642;13.806;2023-12-07T03:29:00;4.90;;;3.03;;
36443;SDS011;24692;45.642;13.806;2023-12-07T03:31:25;5.40;;;3.37;;
36443;SDS011;24692;45.642;13.806;2023-12-07T03:33:52;3.57;;;2.57;;
36443;SDS011;24692;45.642;13.806;2023-12-07T03:36:18;5.27;;;2.90;;
36443;SDS011;24692;45.642;13.806;2023-12-07T03:38:44;6.70;;;2.90;;
36443;SDS011;24692;45.642;13.806;2023-12-07T03:41:09;3.63;;;2.80;;
36443;SDS011;24692;45.642;13.806;2023-12-07T03:43:35;4.40;;;2.83;;
36443;SDS011;24692;45.642;13.806;2023-12-07T03:46:03;3.73;;;2.77;;
36443;SDS011;24692;45.642;13.806;2023-12-07T03:48:30;6.90;;;3.20;;
36443;SDS011;24692;45.642;13.806;2023-12-07T03:50:55;5.13;;;3.40;;
36443;SDS011;24692;45.642;13.806;2023-12-07T03:53:21;4.37;;;3.20;;
36443;SDS011;24692;45.642;13.806;2023-12-07T03:55:47;4.37;;;3.27;;
36443;SDS011;24692;45.642;13.806;2023-12-07T03:58:12;4.00;;;3.57;;
36443;SDS011;24692;45.642;13.806;2023-12-07T04:00:39;5.13;;;3.40;;
36443;SDS011;24692;45.642;13.806;2023-12-07T04:03:04;5.33;;;3.37;;
36443;SDS011;24692;45.642;13.806;2023-12-07T04:05:30;5.27;;;3.20;;
36443;SDS011;24692;45.642;13.806;2023-12-07T04:07:57;5.33;;;3.50;;
36443;SDS011;24692;45.642;13.806;2023-12-07T04:10:22;5.37;;;3.67;;
36443;SDS011;24692;45.642;13.806;2023-12-07T04:12:48;7.73;;;3.50;;
36443;SDS011;24692;45.642;13.806;2023-12-07T04:15:14;8.63;;;4.10;;
36443;SDS011;24692;45.642;13.806;2023-12-07T04:17:40;4.20;;;3.47;;
36443;SDS011;24692;45.642;13.806;2023-12-07T04:20:06;4.60;;;3.47;;
36443;SDS011;24692;45.642;13.806;2023-12-07T04:22:32;8.87;;;3.93;;
36443;SDS011;24692;45.642;13.806;2023-12-07T04:24:58;4.77;;;3.33;;
36443;SDS011;24692;45.642;13.806;2023-12-07T04:27:24;4.83;;;3.40;;
36443;SDS011;24692;45.642;13.806;2023-12-07T04:29:49;5.27;;;3.60;;
36443;SDS011;24692;45.642;13.806;2023-12-07T04:32:15;4.70;;;3.63;;
36443;SDS011;24692;45.642;13.806;2023-12-07T04:34:41;5.90;;;3.30;;
36443;SDS011;24692;45.642;13.806;2023-12-07T04:37:06;5.40;;;3.50;;
36443;SDS011;24692;45.642;13.806;2023-12-07T04:39:32;4.87;;;3.77;;
36443;SDS011;24692;45.642;13.806;2023-12-07T04:41:57;5.33;;;3.40;;
36443;SDS011;24692;45.642;13.806;2023-12-07T04:44:23;5.50;;;3.77;;
36443;SDS011;24692;45.642;13.806;2023-12-07T04:46:50;4.60;;;3.40;;
36443;SDS011;24692;45.642;13.806;2023-12-07T04:49:16;5.77;;;3.53;;
36443;SDS011;24692;45.642;13.806;2023-12-07T04:51:42;4.13;;;3.43;;
36443;SDS011;24692;45.642;13.806;2023-12-07T04:54:11;4.37;;;3.70;;
36443;SDS011;24692;45.642;13.806;2023-12-07T04:56:39;5.53;;;3.90;;
36443;SDS011;24692;45.642;13.806;2023-12-07T04:59:11;4.97;;;4.00;;
36443;SDS011;24692;45.642;13.806;2023-12-07T05:01:37;6.13;;;4.33;;
36443;SDS011;24692;45.642;13.806;2023-12-07T05:04:03;5.43;;;3.87;;
36443;SDS011;24692;45.642;13.806;2023-12-07T05:06:30;6.87;;;4.80;;
36443;SDS011;24692;45.642;13.806;2023-12-07T05:08:59;6.87;;;4.60;;
36443;SDS011;24692;45.642;13.806;2023-12-07T05:11:25;6.67;;;4.70;;
36443;SDS011;24692;45.642;13.806;2023-12-07T05:13:51;6.13;;;4.30;;
36443;SDS011;24692;45.642;13.806;2023-12-07T05:16:17;7.47;;;4.37;;
36443;SDS011;24692;45.642;13.806;2023-12-07T05:18:42;5.30;;;4.07;;
36443;SDS011;24692;45.642;13.806;2023-12-07T05:21:09;4.90;;;3.93;;
36443;SDS011;24692;45.642;13.806;2023-12-07T05:23:35;6.57;;;4.27;;
36443;SDS011;24692;45.642;13.806;2023-12-07T05:26:01;6.07;;;4.20;;
36443;SDS011;24692;45.642;13.806;2023-12-07T05:28:26;5.87;;;4.37;;
36443;SDS011;24692;45.642;13.806;2023-12-07T05:30:52;5.70;;;4.23;;
36443;SDS011;24692;45.642;13.806;2023-12-07T05:33:18;4.53;;;3.97;;
36443;SDS011;24692;45.642;13.806;2023-12-07T05:35:47;5.50;;;4.07;;
36443;SDS011;24692;45.642;13.806;2023-12-07T05:38:13;4.53;;;4.07;;
36443;SDS011;24692;45.642;13.806;2023-12-07T05:40:38;5.83;;;4.13;;
36443;SDS011;24692;45.642;13.806;2023-12-07T05:43:04;6.70;;;4.67;;
36443;SDS011;24692;45.642;13.806;2023-12-07T05:45:30;10.27;;;7.13;;
36443;SDS011;24692;45.642;13.806;2023-12-07T05:47:55;8.00;;;5.57;;
36443;SDS011;24692;45.642;13.806;2023-12-07T05:50:21;6.90;;;5.13;;
36443;SDS011;24692;45.642;13.806;2023-12-07T05:52:47;6.27;;;4.70;;
36443;SDS011;24692;45.642;13.806;2023-12-07T05:55:13;5.63;;;4.27;;
36443;SDS011;24692;45.642;13.806;2023-12-07T05:57:38;6.17;;;4.63;;
36443;SDS011;24692;45.642;13.806;2023-12-07T06:00:05;5.30;;;4.43;;
36443;SDS011;24692;45.642;13.806;2023-12-07T06:02:35;9.03;;;4.73;;
36443;SDS011;24692;45.642;13.806;2023-12-07T06:05:01;5.70;;;4.57;;
36443;SDS011;24692;45.642;13.806;2023-12-07T06:07:29;5.70;;;4.40;;
36443;SDS011;24692;45.642;13.806;2023-12-07T06:09:54;6.50;;;4.57;;
36443;SDS011;24692;45.642;13.806;2023-12-07T06:12:20;5.43;;;4.73;;
36443;SDS011;24692;45.642;13.806;2023-12-07T06:14:47;5.37;;;4.30;;
36443;SDS011;24692;45.642;13.806;2023-12-07T06:17:13;7.43;;;4.63;;
36443;SDS011;24692;45.642;13.806;2023-12-07T06:19:39;8.20;;;4.93;;
36443;SDS011;24692;45.642;13.806;2023-12-07T06:22:04;6.20;;;4.23;;
36443;SDS011;24692;45.642;13.806;2023-12-07T06:24:31;9.03;;;4.27;;
36443;SDS011;24692;45.642;13.806;2023-12-07T06:26:57;8.93;;;5.00;;
36443;SDS011;24692;45.642;13.806;2023-12-07T06:29:24;6.50;;;4.60;;
36443;SDS011;24692;45.642;13.806;2023-12-07T06:31:50;6.30;;;4.70;;
36443;SDS011;24692;45.642;13.806;2023-12-07T06:34:15;7.13;;;4.27;;
36443;SDS011;24692;45.642;13.806;2023-12-07T06:36:41;5.67;;;3.70;;
36443;SDS011;24692;45.642;13.806;2023-12-07T06:39:08;4.90;;;3.87;;
36443;SDS011;24692;45.642;13.806;2023-12-07T06:41:35;4.50;;;3.50;;
36443;SDS011;24692;45.642;13.806;2023-12-07T06:44:00;5.07;;;3.33;;
36443;SDS011;24692;45.642;13.806;2023-12-07T06:46:28;4.10;;;3.40;;
36443;SDS011;24692;45.642;13.806;2023-12-07T06:48:53;4.07;;;3.63;;
36443;SDS011;24692;45.642;13.806;2023-12-07T06:51:19;4.13;;;3.23;;
36443;SDS011;24692;45.642;13.806;2023-12-07T06:53:45;4.33;;;3.10;;
36443;SDS011;24692;45.642;13.806;2023-12-07T06:56:10;3.37;;;2.80;;
36443;SDS011;24692;45.642;13.806;2023-12-07T06:58:36;4.37;;;3.60;;
36443;SDS011;24692;45.642;13.806;2023-12-07T07:01:02;4.40;;;3.10;;
36443;SDS011;24692;45.642;13.806;2023-12-07T07:03:28;3.80;;;2.90;;
36443;SDS011;24692;45.642;13.806;2023-12-07T07:05:56;3.30;;;2.70;;
36443;SDS011;24692;45.642;13.806;2023-12-07T07:08:24;3.30;;;2.87;;
36443;SDS011;24692;45.642;13.806;2023-12-07T07:10:50;3.13;;;2.50;;
36443;SDS011;24692;45.642;13.806;2023-12-07T07:13:16;3.30;;;2.40;;
36443;SDS011;24692;45.642;13.806;2023-12-07T07:15:42;4.67;;;2.33;;
36443;SDS011;24692;45.642;13.806;2023-12-07T07:18:13;3.77;;;2.70;;
36443;SDS011;24692;45.642;13.806;2023-12-07T07:20:38;7.20;;;3.30;;
36443;SDS011;24692;45.642;13.806;2023-12-07T07:23:05;5.47;;;3.27;;
36443;SDS011;24692;45.642;13.806;2023-12-07T07:25:33;3.10;;;2.50;;
36443;SDS011;24692;45.642;13.806;2023-12-07T07:27:59;4.47;;;2.67;;
36443;SDS011;24692;45.642;13.806;2023-12-07T07:30:25;2.37;;;2.17;;
36443;SDS011;24692;45.642;13.806;2023-12-07T07:32:51;8.03;;;2.50;;
36443;SDS011;24692;45.642;13.806;2023-12-07T07:35:17;3.67;;;2.60;;
36443;SDS011;24692;45.642;13.806;2023-12-07T07:37:43;4.60;;;2.57;;
36443;SDS011;24692;45.642;13.806;2023-12-07T07:40:08;3.73;;;2.33;;
36443;SDS011;24692;45.642;13.806;2023-12-07T07:42:37;4.13;;;2.60;;
36443;SDS011;24692;45.642;13.806;2023-12-07T07:45:05;2.47;;;2.27;;
36443;SDS011;24692;45.642;13.806;2023-12-07T07:47:32;2.93;;;2.50;;
36443;SDS011;24692;45.642;13.806;2023-12-07T07:49:57;2.17;;;1.90;;
36443;SDS011;24692;45.642;13.806;2023-12-07T07:52:23;3.30;;;1.90;;
36443;SDS011;24692;45.642;13.806;2023-12-07T07:54:49;2.03;;;1.83;;
36443;SDS011;24692;45.642;13.806;2023-12-07T07:57:15;1.60;;;1.50;;
36443;SDS011;24692;45.642;13.806;2023-12-07T07:59:41;1.40;;;1.30;;
36443;SDS011;24692;45.642;13.806;2023-12-07T08:02:06;1.60;;;1.50;;
36443;SDS011;24692;45.642;13.806;2023-12-07T08:04:32;1.57;;;1.33;;
36443;SDS011;24692;45.642;13.806;2023-12-07T08:06:57;2.20;;;1.30;;
36443;SDS011;24692;45.642;13.806;2023-12-07T08:09:23;3.70;;;1.50;;
36443;SDS011;24692;45.642;13.806;2023-12-07T08:11:49;2.33;;;1.13;;
36443;SDS011;24692;45.642;13.806;2023-12-07T08:14:15;1.37;;;1.13;;
36443;SDS011;24692;45.642;13.806;2023-12-07T08:16:44;1.83;;;1.30;;
36443;SDS011;24692;45.642;13.806;2023-12-07T08:19:11;2.53;;;1.30;;
36443;SDS011;24692;45.642;13.806;2023-12-07T08:21:38;2.40;;;1.37;;
36443;SDS011;24692;45.642;13.806;2023-12-07T08:24:04;3.03;;;1.47;;
36443;SDS011;24692;45.642;13.806;2023-12-07T08:26:30;2.87;;;1.47;;
36443;SDS011;24692;45.642;13.806;2023-12-07T08:28:56;2.90;;;1.50;;
36443;SDS011;24692;45.642;13.806;2023-12-07T08:31:22;1.83;;;1.50;;
36443;SDS011;24692;45.642;13.806;2023-12-07T08:33:49;1.30;;;1.20;;
36443;SDS011;24692;45.642;13.806;2023-12-07T08:36:15;2.20;;;1.30;;
36443;SDS011;24692;45.642;13.806;2023-12-07T08:38:41;1.83;;;1.60;;
36443;SDS011;24692;45.642;13.806;2023-12-07T08:41:07;1.43;;;1.33;;
36443;SDS011;24692;45.642;13.806;2023-12-07T08:43:33;1.60;;;1.50;;
36443;SDS011;24692;45.642;13.806;2023-12-07T08:45:59;1.93;;;1.70;;
36443;SDS011;24692;45.642;13.806;2023-12-07T08:48:24;1.60;;;1.50;;
36443;SDS011;24692;45.642;13.806;2023-12-07T08:50:50;1.57;;;1.47;;
36443;SDS011;24692;45.642;13.806;2023-12-07T08:53:16;1.50;;;1.40;;
36443;SDS011;24692;45.642;13.806;2023-12-07T08:55:42;1.37;;;1.20;;
36443;SDS011;24692;45.642;13.806;2023-12-07T08:58:08;1.77;;;1.30;;
36443;SDS011;24692;45.642;13.806;2023-12-07T09:00:35;1.30;;;1.20;;
36443;SDS011;24692;45.642;13.806;2023-12-07T09:03:01;1.27;;;1.17;;
36443;SDS011;24692;45.642;13.806;2023-12-07T09:05:27;2.00;;;1.40;;
36443;SDS011;24692;45.642;13.806;2023-12-07T09:07:54;1.70;;;1.60;;
36443;SDS011;24692;45.642;13.806;2023-12-07T09:10:21;2.57;;;1.50;;
36443;SDS011;24692;45.642;13.806;2023-12-07T09:12:48;1.83;;;1.47;;
36443;SDS011;24692;45.642;13.806;2023-12-07T09:15:14;1.60;;;1.50;;
36443;SDS011;24692;45.642;13.806;2023-12-07T09:17:40;1.90;;;1.52;;
36443;SDS011;24692;45.642;13.806;2023-12-07T09:20:10;1.48;;;1.38;;
36443;SDS011;24692;45.642;13.806;2023-12-07T09:22:45;1.30;;;1.20;;
36443;SDS011;24692;45.642;13.806;2023-12-07T09:25:13;1.60;;;1.40;;
36443;SDS011;24692;45.642;13.806;2023-12-07T09:27:40;1.70;;;1.25;;
36443;SDS011;24692;45.642;13.806;2023-12-07T09:30:06;2.40;;;1.50;;
36443;SDS011;24692;45.642;13.806;2023-12-07T09:32:35;1.48;;;1.00;;
36443;SDS011;24692;45.642;13.806;2023-12-07T09:35:05;5.82;;;1.63;;
36443;SDS011;24692;45.642;13.806;2023-12-07T09:37:32;3.17;;;1.40;;
36443;SDS011;24692;45.642;13.806;2023-12-07T09:39:59;1.88;;;1.60;;
36443;SDS011;24692;45.642;13.806;2023-12-07T09:42:26;1.63;;;0.80;;
36443;SDS011;24692;45.642;13.806;2023-12-07T09:44:52;1.00;;;0.90;;
36443;SDS011;24692;45.642;13.806;2023-12-07T09:47:17;0.80;;;0.80;;
36443;SDS011;24692;45.642;13.806;2023-12-07T09:49:44;2.33;;;1.10;;
36443;SDS011;24692;45.642;13.806;2023-12-07T09:52:10;2.30;;;0.90;;
36443;SDS011;24692;45.642;13.806;2023-12-07T09:54:40;3.63;;;1.10;;
36443;SDS011;24692;45.642;13.806;2023-12-07T09:57:07;1.05;;;0.95;;
36443;SDS011;24692;45.642;13.806;2023-12-07T09:59:37;4.30;;;1.03;;
36443;SDS011;24692;45.642;13.806;2023-12-07T10:02:04;0.93;;;0.90;;
36443;SDS011;24692;45.642;13.806;2023-12-07T10:04:31;1.30;;;1.20;;
36443;SDS011;24692;45.642;13.806;2023-12-07T10:06:57;1.00;;;1.00;;
36443;SDS011;24692;45.642;13.806;2023-12-07T10:09:22;0.90;;;0.90;;
36443;SDS011;24692;45.642;13.806;2023-12-07T10:11:49;1.77;;;1.07;;
36443;SDS011;24692;45.642;13.806;2023-12-07T10:14:16;2.30;;;1.10;;
36443;SDS011;24692;45.642;13.806;2023-12-07T10:16:52;1.50;;;1.10;;
36443;SDS011;24692;45.642;13.806;2023-12-07T10:19:21;1.40;;;1.20;;
36443;SDS011;24692;45.642;13.806;2023-12-07T10:21:49;1.70;;;1.23;;
36443;SDS011;24692;45.642;13.806;2023-12-07T10:24:21;6.05;;;1.50;;
36443;SDS011;24692;45.642;13.806;2023-12-07T10:26:48;1.50;;;1.35;;
36443;SDS011;24692;45.642;13.806;2023-12-07T10:29:20;1.73;;;1.10;;
36443;SDS011;24692;45.642;13.806;2023-12-07T10:31:48;8.60;;;1.50;;
36443;SDS011;24692;45.642;13.806;2023-12-07T10:34:17;2.15;;;1.02;;
36443;SDS011;24692;45.642;13.806;2023-12-07T10:36:48;3.83;;;1.30;;
36443;SDS011;24692;45.642;13.806;2023-12-07T10:39:18;1.55;;;1.10;;
36443;SDS011;24692;45.642;13.806;2023-12-07T10:41:45;1.20;;;1.10;;
36443;SDS011;24692;45.642;13.806;2023-12-07T10:44:13;2.03;;;1.10;;
36443;SDS011;24692;45.642;13.806;2023-12-07T10:46:41;0.80;;;0.80;;
36443;SDS011;24692;45.642;13.806;2023-12-07T10:49:11;2.35;;;1.00;;
36443;SDS011;24692;45.642;13.806;2023-12-07T10:51:57;1.00;;;1.00;;
36443;SDS011;24692;45.642;13.806;2023-12-07T10:54:27;3.25;;;1.40;;
36443;SDS011;24692;45.642;13.806;2023-12-07T10:57:01;2.30;;;1.20;;
36443;SDS011;24692;45.642;13.806;2023-12-07T10:59:30;2.08;;;1.30;;
36443;SDS011;24692;45.642;13.806;2023-12-07T11:01:57;2.28;;;0.88;;
36443;SDS011;24692;45.642;13.806;2023-12-07T11:04:24;1.88;;;1.30;;
36443;SDS011;24692;45.642;13.806;2023-12-07T11:06:50;1.23;;;1.10;;
36443;SDS011;24692;45.642;13.806;2023-12-07T11:09:21;0.90;;;0.90;;
36443;SDS011;24692;45.642;13.806;2023-12-07T11:11:57;2.40;;;1.60;;
36443;SDS011;24692;45.642;13.806;2023-12-07T11:14:30;1.35;;;1.15;;
36443;SDS011;24692;45.642;13.806;2023-12-07T11:16:58;0.98;;;0.95;;
36443;SDS011;24692;45.642;13.806;2023-12-07T11:22:04;1.30;;;1.20;;
36443;SDS011;24692;45.642;13.806;2023-12-07T11:24:38;1.40;;;1.30;;
36443;SDS011;24692;45.642;13.806;2023-12-07T11:27:28;2.80;;;1.08;;
36443;SDS011;24692;45.642;13.806;2023-12-07T11:29:58;1.30;;;1.20;;
36443;SDS011;24692;45.642;13.806;2023-12-07T11:32:27;1.77;;;1.05;;
36443;SDS011;24692;45.642;13.806;2023-12-07T11:34:54;10.75;;;1.65;;
36443;SDS011;24692;45.642;13.806;2023-12-07T11:37:19;2.65;;;1.20;;
36443;SDS011;24692;45.642;13.806;2023-12-07T11:39:46;13.40;;;1.98;;
36443;SDS011;24692;45.642;13.806;2023-12-07T11:44:43;7.38;;;1.75;;
36443;SDS011;24692;45.642;13.806;2023-12-07T11:47:15;3.08;;;1.60;;
36443;SDS011;24692;45.642;13.806;2023-12-07T11:49:43;1.40;;;1.30;;
36443;SDS011;24692;45.642;13.806;2023-12-07T11:52:21;3.58;;;1.30;;
36443;SDS011;24692;45.642;13.806;2023-12-07T11:54:47;4.07;;;1.50;;
36443;SDS011;24692;45.642;13.806;2023-12-07T11:57:18;1.75;;;1.30;;
36443;SDS011;24692;45.642;13.806;2023-12-07T11:59:44;1.30;;;1.20;;
36443;SDS011;24692;45.642;13.806;2023-12-07T12:02:16;4.80;;;1.55;;
36443;SDS011;24692;45.642;13.806;2023-12-07T12:04:42;3.40;;;1.60;;
36443;SDS011;24692;45.642;13.806;2023-12-07T12:07:10;2.20;;;1.30;;
36443;SDS011;24692;45.642;13.806;2023-12-07T12:09:36;2.35;;;1.30;;
36443;SDS011;24692;45.642;13.806;2023-12-07T12:12:02;1.33;;;1.23;;
36443;SDS011;24692;45.642;13.806;2023-12-07T12:14:38;2.72;;;1.58;;
36443;SDS011;24692;45.642;13.806;2023-12-07T12:17:03;2.42;;;1.58;;
36443;SDS011;24692;45.642;13.806;2023-12-07T12:19:32;3.70;;;1.30;;
36443;SDS011;24692;45.642;13.806;2023-12-07T12:22:02;3.60;;;1.45;;
36443;SDS011;24692;45.642;13.806;2023-12-07T12:24:32;9.05;;;1.65;;
36443;SDS011;24692;45.642;13.806;2023-12-07T12:27:04;2.25;;;1.20;;
36443;SDS011;24692;45.642;13.806;2023-12-07T12:29:32;5.03;;;1.67;;
36443;SDS011;24692;45.642;13.806;2023-12-07T12:31:59;5.87;;;1.40;;
36443;SDS011;24692;45.642;13.806;2023-12-07T12:34:27;5.18;;;1.90;;
36443;SDS011;24692;45.642;13.806;2023-12-07T12:36:55;3.83;;;1.30;;
36443;SDS011;24692;45.642;13.806;2023-12-07T12:39:26;4.93;;;1.40;;
36443;SDS011;24692;45.642;13.806;2023-12-07T12:41:55;1.83;;;1.20;;
36443;SDS011;24692;45.642;13.806;2023-12-07T12:44:25;2.25;;;1.40;;
36443;SDS011;24692;45.642;13.806;2023-12-07T12:46:52;2.35;;;1.17;;
36443;SDS011;24692;45.642;13.806;2023-12-07T12:49:19;1.03;;;1.00;;
36443;SDS011;24692;45.642;13.806;2023-12-07T12:51:45;2.00;;;1.17;;
36443;SDS011;24692;45.642;13.806;2023-12-07T12:54:13;2.28;;;1.05;;
36443;SDS011;24692;45.642;13.806;2023-12-07T12:56:39;2.40;;;1.47;;
36443;SDS011;24692;45.642;13.806;2023-12-07T12:59:08;5.70;;;1.50;;
36443;SDS011;24692;45.642;13.806;2023-12-07T13:01:35;4.65;;;1.45;;
36443;SDS011;24692;45.642;13.806;2023-12-07T13:04:01;1.30;;;1.20;;
36443;SDS011;24692;45.642;13.806;2023-12-07T13:06:27;3.05;;;1.23;;
36443;SDS011;24692;45.642;13.806;2023-12-07T13:08:54;2.03;;;1.30;;
36443;SDS011;24692;45.642;13.806;2023-12-07T13:11:21;5.05;;;1.42;;
36443;SDS011;24692;45.642;13.806;2023-12-07T13:13:48;7.10;;;1.55;;
36443;SDS011;24692;45.642;13.806;2023-12-07T13:16:16;1.63;;;1.48;;
36443;SDS011;24692;45.642;13.806;2023-12-07T13:18:43;3.30;;;1.60;;
36443;SDS011;24692;45.642;13.806;2023-12-07T13:21:09;3.38;;;1.30;;
36443;SDS011;24692;45.642;13.806;2023-12-07T13:23:36;3.83;;;1.60;;
36443;SDS011;24692;45.642;13.806;2023-12-07T13:26:03;3.17;;;1.38;;
36443;SDS011;24692;45.642;13.806;2023-12-07T13:28:31;1.25;;;1.15;;
36443;SDS011;24692;45.642;13.806;2023-12-07T13:30:58;3.00;;;1.50;;
36443;SDS011;24692;45.642;13.806;2023-12-07T13:33:26;3.28;;;1.52;;
36443;SDS011;24692;45.642;13.806;2023-12-07T13:35:52;2.50;;;1.50;;
36443;SDS011;24692;45.642;13.806;2023-12-07T13:38:19;2.00;;;1.48;;
36443;SDS011;24692;45.642;13.806;2023-12-07T13:40:46;1.48;;;1.20;;
36443;SDS011;24692;45.642;13.806;2023-12-07T13:43:13;3.22;;;1.45;;
36443;SDS011;24692;45.642;13.806;2023-12-07T13:45:39;4.05;;;1.40;;
36443;SDS011;24692;45.642;13.806;2023-12-07T13:48:06;3.33;;;1.55;;
36443;SDS011;24692;45.642;13.806;2023-12-07T13:50:32;2.25;;;1.10;;
36443;SDS011;24692;45.642;13.806;2023-12-07T13:52:58;2.87;;;1.50;;
36443;SDS011;24692;45.642;13.806;2023-12-07T13:55:23;3.22;;;1.42;;
36443;SDS011;24692;45.642;13.806;2023-12-07T13:57:50;5.30;;;1.90;;
36443;SDS011;24692;45.642;13.806;2023-12-07T14:00:18;4.47;;;1.70;;
36443;SDS011;24692;45.642;13.806;2023-12-07T14:02:45;3.15;;;1.40;;
36443;SDS011;24692;45.642;13.806;2023-12-07T14:05:11;2.80;;;1.60;;
36443;SDS011;24692;45.642;13.806;2023-12-07T14:07:38;5.80;;;1.60;;
36443;SDS011;24692;45.642;13.806;2023-12-07T14:10:04;2.33;;;1.42;;
36443;SDS011;24692;45.642;13.806;2023-12-07T14:12:30;2.30;;;1.58;;
36443;SDS011;24692;45.642;13.806;2023-12-07T14:15:01;2.25;;;1.63;;
36443;SDS011;24692;45.642;13.806;2023-12-07T14:17:28;2.92;;;1.80;;
36443;SDS011;24692;45.642;13.806;2023-12-07T14:20:04;3.97;;;1.40;;
36443;SDS011;24692;45.642;13.806;2023-12-07T14:22:32;2.70;;;1.23;;
36443;SDS011;24692;45.642;13.806;2023-12-07T14:25:02;1.20;;;1.10;;
36443;SDS011;24692;45.642;13.806;2023-12-07T14:27:29;1.60;;;1.30;;
36443;SDS011;24692;45.642;13.806;2023-12-07T14:29:57;4.40;;;1.73;;
36443;SDS011;24692;45.642;13.806;2023-12-07T14:32:24;3.23;;;1.30;;
36443;SDS011;24692;45.642;13.806;2023-12-07T14:34:51;2.47;;;1.42;;
36443;SDS011;24692;45.642;13.806;2023-12-07T14:37:18;2.73;;;1.47;;
36443;SDS011;24692;45.642;13.806;2023-12-07T14:39:46;3.77;;;1.37;;